createdAt,value
2023-08-27T00:00:58.188Z,100579.44
2023-08-27T00:03:25.486Z,100570.91
2023-08-27T00:05:52.325Z,100562.41
2023-08-27T00:08:19.036Z,100578.81
2023-08-27T00:10:45.777Z,100578.75
2023-08-27T00:13:12.543Z,100575.34
2023-08-27T00:15:45.477Z,100578.00
2023-08-27T00:18:11.905Z,100568.72
2023-08-27T00:20:38.355Z,100559.47
2023-08-27T00:23:05.048Z,100541.44
2023-08-27T00:25:32.050Z,100529.38
2023-08-27T00:27:58.791Z,100520.13
2023-08-27T00:30:25.503Z,100518.34
2023-08-27T00:32:52.180Z,100522.66
2023-08-27T00:35:20.988Z,100535.66
2023-08-27T00:37:50.161Z,100532.28
2023-08-27T00:40:17.010Z,100541.84
2023-08-27T00:42:43.675Z,100535.09
2023-08-27T00:45:11.428Z,100524.84
2023-08-27T00:47:39.760Z,100530.03
2023-08-27T00:50:11.692Z,100550.78
2023-08-27T00:52:39.376Z,100553.31
2023-08-27T00:55:06.572Z,100554.31
2023-08-27T00:57:35.960Z,100548.31
2023-08-27T01:00:02.986Z,100543.97
2023-08-27T01:02:30.269Z,100548.41
2023-08-27T01:04:57.066Z,100545.00
2023-08-27T01:07:43.034Z,100532.19
2023-08-27T01:10:22.375Z,100539.97
2023-08-27T01:13:02.081Z,100531.47
2023-08-27T01:15:30.443Z,100533.97
2023-08-27T01:18:00.508Z,100524.44
2023-08-27T01:20:27.783Z,100535.63
2023-08-27T01:22:55.745Z,100533.91
2023-08-27T01:25:25.830Z,100530.44
2023-08-27T01:27:56.835Z,100526.16
2023-08-27T01:30:37.710Z,100535.56
2023-08-27T01:33:09.683Z,100533.84
2023-08-27T01:35:38.641Z,100534.56
2023-08-27T01:38:05.672Z,100522.50
2023-08-27T01:40:33.013Z,100533.69
2023-08-27T01:42:59.661Z,100538.81
2023-08-27T01:45:26.760Z,100536.22
2023-08-27T01:47:53.404Z,100556.78
2023-08-27T01:50:19.915Z,100560.16
2023-08-27T01:52:46.630Z,100551.56
2023-08-27T01:55:13.122Z,100553.22
2023-08-27T01:57:39.844Z,100527.41
2023-08-27T02:00:10.261Z,100523.88
2023-08-27T02:02:37.459Z,100520.47
2023-08-27T02:05:05.096Z,100524.72
2023-08-27T02:07:32.678Z,100525.56
2023-08-27T02:09:59.371Z,100528.13
2023-08-27T02:12:28.088Z,100511.94
2023-08-27T02:14:54.802Z,100504.22
2023-08-27T02:17:21.561Z,100496.59
2023-08-27T02:19:48.327Z,100503.53
2023-08-27T02:22:15.008Z,100495.91
2023-08-27T02:24:41.746Z,100503.59
2023-08-27T02:27:08.498Z,100507.84
2023-08-27T02:29:36.462Z,100507.84
2023-08-27T02:32:03.785Z,100481.31
2023-08-27T02:34:30.870Z,100485.69
2023-08-27T02:36:57.364Z,100520.94
2023-08-27T02:39:25.479Z,100537.28
2023-08-27T02:41:53.000Z,100539.84
2023-08-27T02:44:19.514Z,100521.00
2023-08-27T02:46:45.891Z,100515.91
2023-08-27T02:49:12.589Z,100513.34
2023-08-27T02:51:39.416Z,100498.75
2023-08-27T02:54:05.989Z,100510.78
2023-08-27T02:56:32.424Z,100502.28
2023-08-27T02:58:59.980Z,100500.63
2023-08-27T03:01:27.090Z,100485.06
2023-08-27T03:03:53.585Z,100498.81
2023-08-27T03:06:20.904Z,100504.84
2023-08-27T03:08:47.478Z,100493.81
2023-08-27T03:11:14.286Z,100509.28
2023-08-27T03:13:40.914Z,100533.38
2023-08-27T03:16:07.718Z,100546.22
2023-08-27T03:18:34.507Z,100542.03
2023-08-27T03:21:00.991Z,100539.44
2023-08-27T03:23:27.725Z,100527.41
2023-08-27T03:25:54.438Z,100527.53
2023-08-27T03:28:21.152Z,100514.69
2023-08-27T03:30:48.357Z,100516.44
2023-08-27T03:33:15.161Z,100520.75
2023-08-27T03:35:41.931Z,100521.72
2023-08-27T03:38:08.375Z,100520.91
2023-08-27T03:40:34.848Z,100530.34
2023-08-27T03:43:01.840Z,100514.94
2023-08-27T03:45:28.736Z,100511.50
2023-08-27T03:47:55.214Z,100504.66
2023-08-27T03:50:23.268Z,100505.50
2023-08-27T03:52:49.848Z,100502.16
2023-08-27T03:55:19.080Z,100480.66
2023-08-27T03:57:46.049Z,100474.66
2023-08-27T04:00:13.441Z,100471.28
2023-08-27T04:02:39.933Z,100471.34
2023-08-27T04:05:06.978Z,100466.16
2023-08-27T04:07:33.690Z,100470.47
2023-08-27T04:10:00.418Z,100465.38
2023-08-27T04:12:27.989Z,100467.88
2023-08-27T04:14:54.701Z,100464.41
2023-08-27T04:17:21.926Z,100469.53
2023-08-27T04:19:52.773Z,100478.13
2023-08-27T04:22:19.701Z,100485.81
2023-08-27T04:24:46.304Z,100492.63
2023-08-27T04:27:13.269Z,100490.06
2023-08-27T04:29:39.793Z,100482.41
2023-08-27T04:32:08.413Z,100473.75
2023-08-27T04:34:35.121Z,100476.28
2023-08-27T04:37:01.856Z,100471.09
2023-08-27T04:39:29.908Z,100465.94
2023-08-27T04:41:57.409Z,100472.78
2023-08-27T04:44:24.244Z,100477.88
2023-08-27T04:46:50.903Z,100479.56
2023-08-27T04:49:17.424Z,100496.66
2023-08-27T04:51:44.122Z,100491.47
2023-08-27T04:54:10.885Z,100495.72
2023-08-27T04:56:37.608Z,100493.94
2023-08-27T04:59:04.376Z,100503.28
2023-08-27T05:01:30.923Z,100496.34
2023-08-27T05:03:58.195Z,100485.06
2023-08-27T05:06:24.906Z,100490.19
2023-08-27T05:08:52.793Z,100482.34
2023-08-27T05:11:19.532Z,100477.19
2023-08-27T05:13:46.214Z,100491.78
2023-08-27T05:16:12.695Z,100500.34
2023-08-27T05:18:39.497Z,100493.31
2023-08-27T05:21:06.291Z,100488.06
2023-08-27T05:23:32.748Z,100492.31
2023-08-27T05:25:59.515Z,100489.66
2023-08-27T05:28:26.022Z,100473.28
2023-08-27T05:30:52.778Z,100471.47
2023-08-27T05:33:19.662Z,100468.78
2023-08-27T05:35:46.334Z,100468.66
2023-08-27T05:38:13.563Z,100460.84
2023-08-27T05:40:42.582Z,100474.47
2023-08-27T05:43:09.265Z,100482.16
2023-08-27T05:45:36.123Z,100488.94
2023-08-27T05:48:04.313Z,100496.56
2023-08-27T05:50:34.228Z,100484.38
2023-08-27T05:53:02.375Z,100486.81
2023-08-27T05:55:29.129Z,100493.47
2023-08-27T05:57:55.848Z,100479.66
2023-08-27T06:00:22.802Z,100483.81
2023-08-27T06:02:52.008Z,100484.56
2023-08-27T06:05:18.744Z,100474.16
2023-08-27T06:07:45.483Z,100462.84
2023-08-27T06:10:11.945Z,100465.28
2023-08-27T06:12:38.335Z,100468.53
2023-08-27T06:15:05.478Z,100475.25
2023-08-27T06:17:32.164Z,100478.50
2023-08-27T06:19:59.141Z,100472.34
2023-08-27T06:22:26.055Z,100473.03
2023-08-27T06:24:52.606Z,100469.38
2023-08-27T06:27:20.917Z,100464.94
2023-08-27T06:29:47.704Z,100479.38
2023-08-27T06:32:15.618Z,100479.22
2023-08-27T06:34:43.298Z,100482.50
2023-08-27T06:37:10.005Z,100484.09
2023-08-27T06:39:36.791Z,100476.25
2023-08-27T06:42:03.340Z,100468.34
2023-08-27T06:44:30.163Z,100476.00
2023-08-27T06:46:56.733Z,100476.63
2023-08-27T06:49:23.174Z,100475.56
2023-08-27T06:51:49.832Z,100488.44
2023-08-27T06:54:16.593Z,100489.22
2023-08-27T06:56:43.112Z,100483.06
2023-08-27T06:59:10.215Z,100488.06
2023-08-27T07:01:36.900Z,100486.97
2023-08-27T07:04:03.733Z,100483.25
2023-08-27T07:06:30.789Z,100484.00
2023-08-27T07:08:57.369Z,100484.69
2023-08-27T07:11:24.114Z,100490.53
2023-08-27T07:13:50.854Z,100487.78
2023-08-27T07:16:18.075Z,100490.19
2023-08-27T07:18:44.898Z,100476.25
2023-08-27T07:21:11.449Z,100489.81
2023-08-27T07:23:38.173Z,100494.63
2023-08-27T07:26:04.611Z,100503.72
2023-08-27T07:28:31.967Z,100499.72
2023-08-27T07:30:58.935Z,100499.94
2023-08-27T07:33:25.738Z,100501.44
2023-08-27T07:35:52.415Z,100493.56
2023-08-27T07:38:19.145Z,100483.81
2023-08-27T07:40:46.943Z,100495.59
2023-08-27T07:43:13.753Z,100493.56
2023-08-27T07:45:40.866Z,100489.63
2023-08-27T07:50:34.294Z,100477.03
2023-08-27T07:53:01.188Z,100468.00
2023-08-27T07:55:27.727Z,100465.97
2023-08-27T07:57:54.433Z,100475.00
2023-08-27T08:00:22.624Z,100474.47
2023-08-27T08:02:49.182Z,100460.03
2023-08-27T08:05:16.023Z,100438.84
2023-08-27T08:07:42.405Z,100433.28
2023-08-27T08:10:11.369Z,100451.03
2023-08-27T08:12:38.161Z,100459.59
2023-08-27T08:15:05.017Z,100466.16
2023-08-27T08:17:43.713Z,100467.50
2023-08-27T08:20:13.249Z,100445.63
2023-08-27T08:22:40.588Z,100449.28
2023-08-27T08:25:08.083Z,100449.81
2023-08-27T08:27:35.130Z,100453.66
2023-08-27T08:30:02.965Z,100448.19
2023-08-27T08:32:29.888Z,100430.69
2023-08-27T08:34:56.584Z,100425.38
2023-08-27T08:37:23.434Z,100417.56
2023-08-27T08:39:50.158Z,100446.88
2023-08-27T08:42:58.868Z,100466.41
2023-08-27T08:45:34.740Z,100464.47
2023-08-27T08:48:02.075Z,100445.34
2023-08-27T08:50:31.816Z,100433.34
2023-08-27T08:53:02.247Z,100424.13
2023-08-27T08:55:33.454Z,100414.69
2023-08-27T08:58:07.737Z,100416.50
2023-08-27T09:00:36.093Z,100423.47
2023-08-27T09:03:04.337Z,100426.38
2023-08-27T09:05:33.910Z,100424.09
2023-08-27T09:08:01.674Z,100411.34
2023-08-27T09:10:29.368Z,100410.03
2023-08-27T09:12:56.948Z,100410.50
2023-08-27T09:15:23.977Z,100403.03
2023-08-27T09:17:50.784Z,100398.25
2023-08-27T09:20:17.678Z,100397.59
2023-08-27T09:22:44.375Z,100411.69
2023-08-27T09:25:10.930Z,100415.28
2023-08-27T09:27:37.866Z,100420.56
2023-08-27T09:30:05.446Z,100422.63
2023-08-27T09:32:32.964Z,100424.19
2023-08-27T09:34:59.753Z,100420.91
2023-08-27T09:37:37.395Z,100419.16
2023-08-27T09:40:11.089Z,100412.13
2023-08-27T09:42:41.362Z,100399.72
2023-08-27T09:45:08.184Z,100388.81
2023-08-27T09:47:36.103Z,100382.97
2023-08-27T09:50:16.472Z,100387.69
2023-08-27T09:52:43.129Z,100395.00
2023-08-27T09:55:17.185Z,100399.44
2023-08-27T09:57:50.821Z,100402.81
2023-08-27T10:00:19.312Z,100402.97
2023-08-27T10:02:49.423Z,100400.50
2023-08-27T10:05:17.112Z,100402.75
2023-08-27T10:07:55.981Z,100409.88
2023-08-27T10:10:23.060Z,100419.06
2023-08-27T10:12:50.088Z,100419.78
2023-08-27T10:15:18.282Z,100424.56
2023-08-27T10:17:46.390Z,100410.72
2023-08-27T10:20:13.164Z,100396.63
2023-08-27T10:22:40.402Z,100391.09
2023-08-27T10:25:09.733Z,100391.06
2023-08-27T10:27:36.684Z,100388.38
2023-08-27T10:30:04.401Z,100385.66
2023-08-27T10:32:31.162Z,100379.38
2023-08-27T10:34:57.553Z,100386.03
2023-08-27T10:37:24.501Z,100378.81
2023-08-27T10:39:52.806Z,100379.44
2023-08-27T10:42:32.412Z,100381.75
2023-08-27T10:45:15.484Z,100381.75
2023-08-27T10:47:45.001Z,100377.75
2023-08-27T10:50:19.020Z,100374.78
2023-08-27T10:52:50.811Z,100374.94
2023-08-27T10:55:21.529Z,100371.28
2023-08-27T10:57:48.390Z,100376.00
2023-08-27T11:00:15.330Z,100375.66
2023-08-27T11:03:14.816Z,100365.78
2023-08-27T11:05:41.690Z,100357.84
2023-08-27T11:08:17.663Z,100351.94
2023-08-27T11:10:44.650Z,100344.88
2023-08-27T11:13:35.615Z,100349.59
2023-08-27T11:16:17.768Z,100352.19
2023-08-27T11:18:51.835Z,100375.09
2023-08-27T11:21:27.735Z,100384.38
2023-08-27T11:24:12.781Z,100386.16
2023-08-27T11:26:45.564Z,100388.63
2023-08-27T11:29:12.407Z,100380.41
2023-08-27T11:31:40.698Z,100367.91
2023-08-27T11:34:17.308Z,100353.09
2023-08-27T11:36:48.291Z,100342.63
2023-08-27T11:39:16.031Z,100333.63
2023-08-27T11:41:43.997Z,100323.47
2023-08-27T11:44:11.762Z,100329.84
2023-08-27T11:46:39.831Z,100320.78
2023-08-27T11:49:07.720Z,100322.97
2023-08-27T11:51:34.899Z,100329.13
2023-08-27T11:54:06.422Z,100336.88
2023-08-27T11:56:35.399Z,100346.56
2023-08-27T11:59:02.172Z,100334.91
2023-08-27T12:01:29.518Z,100323.53
2023-08-27T12:03:56.492Z,100323.25
2023-08-27T12:06:26.580Z,100326.31
2023-08-27T12:08:56.254Z,100323.47
2023-08-27T12:11:29.439Z,100324.91
2023-08-27T12:14:01.510Z,100333.75
2023-08-27T12:16:32.447Z,100314.16
2023-08-27T12:19:08.297Z,100304.34
2023-08-27T12:21:47.186Z,100296.88
2023-08-27T12:24:28.945Z,100288.91
2023-08-27T12:27:05.929Z,100281.22
2023-08-27T12:29:40.437Z,100281.00
2023-08-27T12:32:15.252Z,100276.00
2023-08-27T12:34:46.824Z,100275.53
2023-08-27T12:37:14.228Z,100274.72
2023-08-27T12:39:42.787Z,100285.31
2023-08-27T12:42:13.526Z,100298.50
2023-08-27T12:44:40.356Z,100302.88
2023-08-27T12:47:09.005Z,100301.66
2023-08-27T12:49:36.774Z,100303.81
2023-08-27T12:52:03.947Z,100308.72
2023-08-27T12:54:30.658Z,100320.00
2023-08-27T12:56:57.223Z,100330.81
2023-08-27T12:59:23.942Z,100329.34
2023-08-27T13:01:50.706Z,100325.06
2023-08-27T13:04:18.302Z,100322.69
2023-08-27T13:06:45.392Z,100313.94
2023-08-27T13:09:18.246Z,100305.47
2023-08-27T13:11:46.077Z,100294.03
2023-08-27T13:14:12.685Z,100288.56
2023-08-27T13:16:39.309Z,100288.56
2023-08-27T13:19:06.222Z,100292.22
2023-08-27T13:21:33.313Z,100285.47
2023-08-27T13:24:01.497Z,100284.16
2023-08-27T13:26:28.537Z,100271.88
2023-08-27T13:28:55.258Z,100266.66
2023-08-27T13:31:21.998Z,100258.97
2023-08-27T13:33:50.174Z,100250.56
2023-08-27T13:36:18.900Z,100241.44
2023-08-27T13:38:45.435Z,100246.66
2023-08-27T13:41:12.051Z,100237.59
2023-08-27T13:43:38.948Z,100233.84
2023-08-27T13:46:05.800Z,100249.06
2023-08-27T13:48:32.318Z,100240.13
2023-08-27T13:50:59.095Z,100246.50
2023-08-27T13:53:25.907Z,100243.28
2023-08-27T13:55:53.482Z,100232.84
2023-08-27T13:58:23.768Z,100226.88
2023-08-27T14:00:53.362Z,100223.97
2023-08-27T14:03:20.285Z,100227.50
2023-08-27T14:05:47.136Z,100221.75
2023-08-27T14:08:13.814Z,100216.09
2023-08-27T14:10:40.556Z,100228.03
2023-08-27T14:13:13.028Z,100238.47
2023-08-27T14:15:39.807Z,100245.75
2023-08-27T14:18:06.446Z,100249.06
2023-08-27T14:20:33.729Z,100256.31
2023-08-27T14:23:00.886Z,100253.03
2023-08-27T14:25:27.630Z,100248.88
2023-08-27T14:27:54.969Z,100240.53
2023-08-27T14:30:21.433Z,100234.47
2023-08-27T14:32:48.008Z,100239.75
2023-08-27T14:35:15.179Z,100242.44
2023-08-27T14:37:41.625Z,100241.66
2023-08-27T14:40:09.087Z,100250.78
2023-08-27T14:42:35.861Z,100254.44
2023-08-27T14:45:04.667Z,100244.84
2023-08-27T14:47:31.495Z,100245.03
2023-08-27T14:49:58.936Z,100240.81
2023-08-27T14:52:28.064Z,100239.03
2023-08-27T14:54:54.596Z,100254.25
2023-08-27T14:57:21.043Z,100252.63
2023-08-27T14:59:47.759Z,100263.25
2023-08-27T15:02:14.947Z,100268.66
2023-08-27T15:04:43.126Z,100265.91
2023-08-27T15:07:10.492Z,100267.06
2023-08-27T15:09:37.550Z,100284.06
2023-08-27T15:12:04.721Z,100279.59
2023-08-27T15:14:31.261Z,100277.25
2023-08-27T15:16:57.776Z,100285.59
2023-08-27T15:19:24.442Z,100298.66
2023-08-27T15:21:50.757Z,100285.81
2023-08-27T15:24:17.186Z,100286.78
2023-08-27T15:26:43.672Z,100296.63
2023-08-27T15:29:12.762Z,100294.16
2023-08-27T15:31:41.194Z,100293.72
2023-08-27T15:34:07.697Z,100285.41
2023-08-27T15:36:34.405Z,100275.09
2023-08-27T15:39:01.469Z,100280.53
2023-08-27T15:41:31.613Z,100282.44
2023-08-27T15:44:00.374Z,100263.69
2023-08-27T15:46:30.340Z,100252.63
2023-08-27T15:48:57.717Z,100247.53
2023-08-27T15:51:24.828Z,100235.97
2023-08-27T15:53:53.928Z,100231.88
2023-08-27T15:56:20.919Z,100236.63
2023-08-27T15:58:49.146Z,100234.25
2023-08-27T16:01:15.908Z,100244.91
2023-08-27T16:03:42.368Z,100249.63
2023-08-27T16:06:08.918Z,100247.28
2023-08-27T16:08:35.446Z,100254.38
2023-08-27T16:11:02.200Z,100257.88
2023-08-27T16:13:28.699Z,100258.75
2023-08-27T16:15:55.154Z,100250.22
2023-08-27T16:18:21.629Z,100258.06
2023-08-27T16:20:48.355Z,100258.19
2023-08-27T16:23:15.033Z,100253.06
2023-08-27T16:25:41.811Z,100255.97
2023-08-27T16:28:08.362Z,100249.09
2023-08-27T16:30:35.192Z,100244.84
2023-08-27T16:33:02.193Z,100233.94
2023-08-27T16:35:31.387Z,100228.75
2023-08-27T16:37:57.890Z,100233.19
2023-08-27T16:40:34.970Z,100241.28
2023-08-27T16:43:02.837Z,100239.59
2023-08-27T16:45:30.014Z,100235.47
2023-08-27T16:47:56.625Z,100230.41
2023-08-27T16:50:23.409Z,100236.50
2023-08-27T16:52:50.122Z,100237.47
2023-08-27T16:55:16.672Z,100239.44
2023-08-27T16:57:43.152Z,100241.34
2023-08-27T17:00:10.519Z,100242.09
2023-08-27T17:02:39.439Z,100235.22
2023-08-27T17:05:06.852Z,100225.06
2023-08-27T17:07:33.375Z,100238.16
2023-08-27T17:10:00.143Z,100236.63
2023-08-27T17:12:26.843Z,100238.31
2023-08-27T17:14:53.367Z,100240.06
2023-08-27T17:17:20.161Z,100229.78
2023-08-27T17:19:46.859Z,100241.91
2023-08-27T17:22:15.687Z,100231.88
2023-08-27T17:24:42.139Z,100248.28
2023-08-27T17:27:08.609Z,100244.00
2023-08-27T17:29:37.784Z,100237.00
2023-08-27T17:32:04.528Z,100234.53
2023-08-27T17:34:32.103Z,100239.03
2023-08-27T17:37:01.204Z,100244.34
2023-08-27T17:39:28.029Z,100246.28
2023-08-27T17:41:55.734Z,100243.88
2023-08-27T17:44:22.200Z,100244.69
2023-08-27T17:46:49.024Z,100261.22
2023-08-27T17:49:15.379Z,100243.22
2023-08-27T17:51:42.080Z,100241.63
2023-08-27T17:54:08.568Z,100243.44
2023-08-27T17:56:35.014Z,100255.59
2023-08-27T17:59:01.685Z,100250.56
2023-08-27T18:01:28.406Z,100254.00
2023-08-27T18:03:55.157Z,100260.19
2023-08-27T18:06:21.586Z,100262.91
2023-08-27T18:08:48.304Z,100256.88
2023-08-27T18:11:15.042Z,100263.03
2023-08-27T18:13:41.752Z,100262.94
2023-08-27T18:16:08.522Z,100253.75
2023-08-27T18:18:35.213Z,100253.78
2023-08-27T18:21:02.028Z,100247.81
2023-08-27T18:23:28.548Z,100254.91
2023-08-27T18:25:54.998Z,100260.97
2023-08-27T18:28:21.432Z,100258.53
2023-08-27T18:30:47.981Z,100261.16
2023-08-27T18:33:14.833Z,100272.38
2023-08-27T18:35:41.441Z,100270.66
2023-08-27T18:38:08.283Z,100279.34
2023-08-27T18:40:34.990Z,100275.06
2023-08-27T18:43:01.704Z,100276.97
2023-08-27T18:45:31.349Z,100273.56
2023-08-27T18:47:59.919Z,100264.94
2023-08-27T18:50:27.097Z,100266.78
2023-08-27T18:52:53.896Z,100262.56
2023-08-27T18:55:20.258Z,100261.72
2023-08-27T18:57:47.030Z,100265.25
2023-08-27T19:00:13.823Z,100259.31
2023-08-27T19:02:40.334Z,100266.25
2023-08-27T19:05:07.118Z,100273.16
2023-08-27T19:07:33.793Z,100273.28
2023-08-27T19:10:00.542Z,100280.16
2023-08-27T19:12:28.329Z,100273.31
2023-08-27T19:14:55.137Z,100268.19
2023-08-27T19:17:21.956Z,100270.00
2023-08-27T19:19:48.618Z,100275.16
2023-08-27T19:22:15.345Z,100278.59
2023-08-27T19:24:44.835Z,100283.91
2023-08-27T19:27:11.683Z,100282.94
2023-08-27T19:29:38.214Z,100282.19
2023-08-27T19:32:04.740Z,100277.00
2023-08-27T19:34:31.499Z,100276.94
2023-08-27T19:36:58.230Z,100269.25
2023-08-27T19:39:24.983Z,100272.59
2023-08-27T19:41:51.446Z,100267.56
2023-08-27T19:44:18.193Z,100266.75
2023-08-27T19:46:44.968Z,100260.81
2023-08-27T19:49:11.405Z,100264.25
2023-08-27T19:51:37.843Z,100259.84
2023-08-27T19:54:05.076Z,100257.34
2023-08-27T19:56:31.899Z,100260.72
2023-08-27T19:58:58.421Z,100266.78
2023-08-27T20:01:25.249Z,100272.81
2023-08-27T20:03:51.987Z,100267.81
2023-08-27T20:06:18.776Z,100269.47
2023-08-27T20:08:45.489Z,100276.34
2023-08-27T20:11:12.211Z,100275.50
2023-08-27T20:13:39.358Z,100267.81
2023-08-27T20:16:06.222Z,100255.69
2023-08-27T20:18:32.795Z,100256.53
2023-08-27T20:20:59.242Z,100269.44
2023-08-27T20:23:27.165Z,100260.81
2023-08-27T20:25:53.752Z,100256.59
2023-08-27T20:28:20.501Z,100259.97
2023-08-27T20:30:47.887Z,100263.44
2023-08-27T20:33:15.232Z,100254.88
2023-08-27T20:35:41.785Z,100247.16
2023-08-27T20:38:08.559Z,100251.44
2023-08-27T20:40:39.460Z,100253.22
2023-08-27T20:43:08.852Z,100258.47
2023-08-27T20:45:35.566Z,100261.06
2023-08-27T20:48:04.305Z,100256.75
2023-08-27T20:50:31.283Z,100257.53
2023-08-27T20:52:57.932Z,100259.28
2023-08-27T20:55:24.726Z,100262.66
2023-08-27T20:57:51.504Z,100263.53
2023-08-27T21:00:18.577Z,100266.97
2023-08-27T21:02:45.342Z,100268.75
2023-08-27T21:05:13.139Z,100268.75
2023-08-27T21:07:39.954Z,100276.47
2023-08-27T21:10:07.480Z,100278.16
2023-08-27T21:12:34.602Z,100279.91
2023-08-27T21:15:01.434Z,100285.06
2023-08-27T21:17:28.225Z,100269.59
2023-08-27T21:19:55.031Z,100267.84
2023-08-27T21:22:21.407Z,100272.13
2023-08-27T21:24:48.220Z,100269.59
2023-08-27T21:27:15.822Z,100265.31
2023-08-27T21:29:42.407Z,100248.97
2023-08-27T21:32:09.229Z,100263.56
2023-08-27T21:34:35.605Z,100265.31
2023-08-27T21:37:02.339Z,100258.38
2023-08-27T21:39:29.066Z,100264.47
2023-08-27T21:41:55.678Z,100271.41
2023-08-27T21:44:25.188Z,100286.00
2023-08-27T21:46:52.861Z,100294.63
2023-08-27T21:49:19.968Z,100299.78
2023-08-27T21:51:46.452Z,100283.38
2023-08-27T21:54:14.461Z,100295.19
2023-08-27T21:56:41.211Z,100297.88
2023-08-27T21:59:07.987Z,100295.34
2023-08-27T22:01:34.667Z,100292.75
2023-08-27T22:04:01.571Z,100298.78
2023-08-27T22:06:28.797Z,100295.34
2023-08-27T22:08:55.572Z,100303.03
2023-08-27T22:11:22.257Z,100290.28
2023-08-27T22:13:48.950Z,100283.38
2023-08-27T22:16:15.675Z,100290.25
2023-08-27T22:18:42.084Z,100298.91
2023-08-27T22:21:08.965Z,100292.91
2023-08-27T22:23:35.481Z,100293.75
2023-08-27T22:26:01.938Z,100292.97
2023-08-27T22:28:28.699Z,100305.09
2023-08-27T22:30:55.487Z,100306.81
2023-08-27T22:33:21.905Z,100311.19
2023-08-27T22:35:49.638Z,100307.75
2023-08-27T22:38:16.383Z,100305.16
2023-08-27T22:40:43.115Z,100306.03
2023-08-27T22:43:09.591Z,100312.13
2023-08-27T22:45:36.834Z,100312.13
2023-08-27T22:48:03.794Z,100308.72
2023-08-27T22:50:30.580Z,100312.19
2023-08-27T22:53:00.023Z,100305.38
2023-08-27T22:55:28.482Z,100307.97
2023-08-27T22:57:56.458Z,100322.63
2023-08-27T23:00:23.451Z,100323.53
2023-08-27T23:02:50.369Z,100325.28
2023-08-27T23:05:16.919Z,100320.25
2023-08-27T23:07:43.586Z,100309.97
2023-08-27T23:10:14.077Z,100306.63
2023-08-27T23:12:40.566Z,100307.47
2023-08-27T23:15:09.200Z,100307.56
2023-08-27T23:17:35.981Z,100314.50
2023-08-27T23:20:02.516Z,100310.25
2023-08-27T23:22:30.802Z,100316.38
2023-08-27T23:24:59.664Z,100325.91
2023-08-27T23:27:27.935Z,100338.00
2023-08-27T23:29:54.677Z,100330.47
2023-08-27T23:32:21.396Z,100327.88
2023-08-27T23:34:48.246Z,100320.19
2023-08-27T23:37:15.601Z,100318.59
2023-08-27T23:39:42.038Z,100322.16
2023-08-27T23:42:10.944Z,100314.47
2023-08-27T23:44:41.550Z,100318.88
2023-08-27T23:47:12.675Z,100330.13
2023-08-27T23:49:39.397Z,100331.94
2023-08-27T23:52:08.022Z,100323.44
2023-08-27T23:54:34.753Z,100323.53
2023-08-27T23:57:04.038Z,100327.94
2023-08-27T23:59:30.606Z,100329.75
